createdAt,value
2023-08-23T00:00:07.752Z,487.21
2023-08-23T00:00:18.760Z,487.22
2023-08-23T00:00:29.769Z,487.24
2023-08-23T00:00:40.762Z,487.26
2023-08-23T00:00:52.739Z,487.28
2023-08-23T00:01:13.244Z,487.27
2023-08-23T00:01:23.388Z,487.31
2023-08-23T00:01:27.742Z,487.31
2023-08-23T00:01:37.786Z,487.34
2023-08-23T00:01:49.773Z,487.35
2023-08-23T00:02:01.790Z,487.36
2023-08-23T00:02:13.838Z,487.40
2023-08-23T00:02:25.780Z,487.42
2023-08-23T00:02:36.825Z,487.41
2023-08-23T00:02:47.791Z,487.41
2023-08-23T00:02:59.869Z,487.42
2023-08-23T00:03:11.960Z,487.45
2023-08-23T00:03:23.878Z,487.45
2023-08-23T00:03:35.808Z,487.43
2023-08-23T00:03:46.766Z,487.46
2023-08-23T00:03:57.736Z,487.47
2023-08-23T00:04:08.820Z,487.49
2023-08-23T00:04:20.785Z,487.46
2023-08-23T00:04:32.746Z,487.48
2023-08-23T00:04:43.746Z,487.48
2023-08-23T00:04:54.742Z,487.49
2023-08-23T00:05:05.743Z,487.47
2023-08-23T00:05:16.744Z,487.46
2023-08-23T00:05:27.750Z,487.47
2023-08-23T00:05:38.766Z,487.49
2023-08-23T00:05:49.767Z,487.47
2023-08-23T00:06:01.740Z,487.46
2023-08-23T00:06:12.741Z,487.44
2023-08-23T00:06:23.760Z,487.40
2023-08-23T00:06:34.750Z,487.39
2023-08-23T00:06:46.766Z,487.36
2023-08-23T00:06:58.742Z,487.36
2023-08-23T00:07:09.735Z,487.33
2023-08-23T00:07:20.729Z,487.31
2023-08-23T00:07:31.723Z,487.29
2023-08-23T00:07:42.719Z,487.28
2023-08-23T00:07:53.730Z,487.27
2023-08-23T00:08:04.731Z,487.27
2023-08-23T00:08:15.715Z,487.26
2023-08-23T00:08:26.730Z,487.26
2023-08-23T00:08:37.750Z,487.24
2023-08-23T00:08:49.822Z,487.22
2023-08-23T00:09:01.762Z,487.21
2023-08-23T00:09:12.750Z,487.17
2023-08-23T00:09:24.767Z,487.19
2023-08-23T00:09:36.752Z,487.13
2023-08-23T00:09:47.754Z,487.13
2023-08-23T00:09:58.758Z,487.10
2023-08-23T00:10:09.763Z,487.10
2023-08-23T00:10:21.757Z,487.07
2023-08-23T00:10:32.747Z,487.06
2023-08-23T00:10:43.755Z,487.05
2023-08-23T00:10:54.754Z,487.06
2023-08-23T00:11:05.757Z,487.07
2023-08-23T00:11:16.730Z,487.06
2023-08-23T00:11:27.773Z,487.06
2023-08-23T00:11:39.744Z,487.06
2023-08-23T00:11:50.765Z,487.07
2023-08-23T00:12:02.727Z,487.06
2023-08-23T00:12:13.720Z,487.04
2023-08-23T00:12:24.729Z,487.09
2023-08-23T00:12:35.723Z,487.09
2023-08-23T00:12:46.753Z,487.10
2023-08-23T00:12:57.758Z,487.14
2023-08-23T00:13:08.757Z,487.12
2023-08-23T00:13:19.764Z,487.17
2023-08-23T00:13:31.754Z,487.19
2023-08-23T00:13:43.727Z,487.17
2023-08-23T00:13:54.741Z,487.16
2023-08-23T00:14:05.763Z,487.17
2023-08-23T00:14:17.738Z,487.17
2023-08-23T00:14:28.740Z,487.16
2023-08-23T00:14:39.749Z,487.16
2023-08-23T00:14:50.754Z,487.14
2023-08-23T00:15:01.761Z,487.14
2023-08-23T00:15:12.782Z,487.14
2023-08-23T00:15:23.774Z,487.12
2023-08-23T00:15:35.740Z,487.11
2023-08-23T00:15:46.756Z,487.09
2023-08-23T00:15:57.764Z,487.08
2023-08-23T00:16:08.773Z,487.07
2023-08-23T00:16:20.773Z,487.05
2023-08-23T00:16:32.787Z,487.05
2023-08-23T00:16:44.843Z,487.02
2023-08-23T00:16:55.798Z,487.04
2023-08-23T00:17:06.728Z,487.03
2023-08-23T00:17:17.732Z,487.03
2023-08-23T00:17:28.772Z,487.01
2023-08-23T00:17:40.808Z,487.01
2023-08-23T00:17:52.798Z,487.03
2023-08-23T00:18:04.793Z,487.05
2023-08-23T00:18:15.777Z,487.00
2023-08-23T00:18:27.742Z,487.02
2023-08-23T00:18:38.759Z,487.01
2023-08-23T00:18:49.753Z,486.99
2023-08-23T00:19:00.760Z,486.98
2023-08-23T00:19:11.813Z,486.98
2023-08-23T00:19:23.768Z,486.96
2023-08-23T00:19:34.743Z,486.97
2023-08-23T00:19:45.749Z,486.96
2023-08-23T00:19:56.779Z,486.94
2023-08-23T00:20:08.791Z,486.96
2023-08-23T00:20:20.764Z,486.93
2023-08-23T00:20:32.755Z,486.93
2023-08-23T00:20:43.755Z,486.93
2023-08-23T00:20:54.765Z,486.92
2023-08-23T00:21:05.769Z,486.92
2023-08-23T00:21:16.768Z,486.90
2023-08-23T00:21:27.766Z,486.91
2023-08-23T00:21:38.761Z,486.92
2023-08-23T00:21:49.771Z,486.89
2023-08-23T00:22:01.749Z,486.88
2023-08-23T00:22:12.746Z,486.88
2023-08-23T00:22:23.752Z,486.85
2023-08-23T00:22:34.745Z,486.87
2023-08-23T00:22:45.743Z,486.86
2023-08-23T00:22:56.761Z,486.86
2023-08-23T00:23:07.769Z,486.90
2023-08-23T00:23:19.757Z,486.92
2023-08-23T00:23:30.793Z,486.94
2023-08-23T00:23:42.755Z,486.95
2023-08-23T00:23:53.754Z,486.94
2023-08-23T00:24:04.764Z,487.00
2023-08-23T00:24:15.772Z,487.02
2023-08-23T00:24:27.744Z,487.04
2023-08-23T00:24:38.741Z,487.06
2023-08-23T00:24:49.753Z,487.07
2023-08-23T00:25:00.764Z,487.12
2023-08-23T00:25:11.773Z,487.13
2023-08-23T00:25:23.754Z,487.15
2023-08-23T00:25:34.753Z,487.16
2023-08-23T00:25:45.748Z,487.19
2023-08-23T00:25:56.748Z,487.22
2023-08-23T00:26:07.768Z,487.21
2023-08-23T00:26:18.766Z,487.25
2023-08-23T00:26:29.765Z,487.26
2023-08-23T00:26:40.764Z,487.29
2023-08-23T00:26:51.766Z,487.28
2023-08-23T00:27:03.741Z,487.31
2023-08-23T00:27:14.764Z,487.29
2023-08-23T00:27:25.758Z,487.29
2023-08-23T00:27:36.775Z,487.29
2023-08-23T00:27:59.984Z,487.31
2023-08-23T00:28:13.089Z,487.32
2023-08-23T00:28:14.187Z,487.32
2023-08-23T00:28:21.718Z,487.31
2023-08-23T00:28:32.716Z,487.29
2023-08-23T00:28:43.751Z,487.30
2023-08-23T00:28:54.761Z,487.31
2023-08-23T00:29:05.798Z,487.33
2023-08-23T00:29:17.770Z,487.33
2023-08-23T00:29:29.732Z,487.34
2023-08-23T00:29:40.730Z,487.33
2023-08-23T00:29:51.729Z,487.32
2023-08-23T00:30:02.748Z,487.31
2023-08-23T00:30:13.762Z,487.30
2023-08-23T00:30:24.764Z,487.29
2023-08-23T00:30:35.818Z,487.26
2023-08-23T00:30:47.825Z,487.26
2023-08-23T00:30:58.802Z,487.30
2023-08-23T00:31:09.778Z,487.27
2023-08-23T00:31:20.869Z,487.26
2023-08-23T00:31:32.735Z,487.29
2023-08-23T00:31:43.729Z,487.28
2023-08-23T00:31:54.756Z,487.28
2023-08-23T00:32:05.773Z,487.26
2023-08-23T00:32:17.744Z,487.27
2023-08-23T00:32:28.953Z,487.27
2023-08-23T00:32:39.843Z,487.30
2023-08-23T00:32:51.800Z,487.35
2023-08-23T00:33:03.839Z,487.37
2023-08-23T00:33:14.804Z,487.38
2023-08-23T00:33:25.828Z,487.39
2023-08-23T00:33:37.819Z,487.40
2023-08-23T00:33:49.866Z,487.44
2023-08-23T00:34:00.735Z,487.42
2023-08-23T00:34:11.741Z,487.46
2023-08-23T00:34:22.750Z,487.46
2023-08-23T00:34:33.779Z,487.46
2023-08-23T00:34:45.770Z,487.47
2023-08-23T00:34:57.740Z,487.49
2023-08-23T00:35:08.733Z,487.49
2023-08-23T00:35:19.741Z,487.50
2023-08-23T00:35:30.736Z,487.49
2023-08-23T00:35:41.733Z,487.49
2023-08-23T00:35:52.756Z,487.49
2023-08-23T00:36:03.800Z,487.48
2023-08-23T00:36:15.785Z,487.49
2023-08-23T00:36:27.780Z,487.46
2023-08-23T00:36:39.746Z,487.47
2023-08-23T00:36:50.759Z,487.49
2023-08-23T00:37:01.755Z,487.47
2023-08-23T00:37:12.750Z,487.49
2023-08-23T00:37:23.766Z,487.48
2023-08-23T00:37:34.765Z,487.49
2023-08-23T00:37:46.054Z,487.48
2023-08-23T00:37:56.747Z,487.50
2023-08-23T00:38:08.772Z,487.51
2023-08-23T00:38:19.729Z,487.50
2023-08-23T00:38:30.738Z,487.49
2023-08-23T00:38:41.735Z,487.51
2023-08-23T00:38:52.740Z,487.49
2023-08-23T00:39:03.751Z,487.49
2023-08-23T00:39:14.720Z,487.48
2023-08-23T00:39:25.747Z,487.46
2023-08-23T00:39:36.766Z,487.47
2023-08-23T00:39:48.762Z,487.45
2023-08-23T00:39:59.768Z,487.45
2023-08-23T00:40:11.730Z,487.45
2023-08-23T00:40:22.734Z,487.52
2023-08-23T00:40:33.758Z,487.51
2023-08-23T00:40:45.751Z,487.53
2023-08-23T00:40:56.757Z,487.53
2023-08-23T00:41:07.767Z,487.53
2023-08-23T00:41:18.770Z,487.54
2023-08-23T00:41:30.744Z,487.58
2023-08-23T00:41:41.747Z,487.58
2023-08-23T00:41:52.758Z,487.61
2023-08-23T00:42:03.765Z,487.60
2023-08-23T00:42:15.754Z,487.59
2023-08-23T00:42:26.749Z,487.58
2023-08-23T00:42:37.748Z,487.60
2023-08-23T00:42:48.763Z,487.63
2023-08-23T00:42:59.760Z,487.62
2023-08-23T00:43:11.746Z,487.63
2023-08-23T00:43:22.762Z,487.65
2023-08-23T00:43:33.765Z,487.70
2023-08-23T00:43:44.764Z,487.68
2023-08-23T00:43:55.766Z,487.69
2023-08-23T00:44:06.775Z,487.67
2023-08-23T00:44:19.588Z,487.67
2023-08-23T00:44:29.759Z,487.67
2023-08-23T00:44:40.773Z,487.67
2023-08-23T00:44:52.754Z,487.64
2023-08-23T00:45:04.750Z,487.66
2023-08-23T00:45:15.750Z,487.66
2023-08-23T00:45:27.752Z,487.68
2023-08-23T00:45:39.742Z,487.66
2023-08-23T00:45:50.732Z,487.67
2023-08-23T00:46:01.773Z,487.66
2023-08-23T00:46:13.779Z,487.69
2023-08-23T00:46:25.816Z,487.68
2023-08-23T00:46:37.817Z,487.66
2023-08-23T00:46:48.815Z,487.64
2023-08-23T00:47:00.808Z,487.64
2023-08-23T00:47:12.789Z,487.65
2023-08-23T00:47:24.764Z,487.66
2023-08-23T00:47:36.785Z,487.67
2023-08-23T00:47:49.099Z,487.65
2023-08-23T00:48:00.782Z,487.65
2023-08-23T00:48:12.814Z,487.64
2023-08-23T00:48:24.756Z,487.64
2023-08-23T00:48:35.774Z,487.65
2023-08-23T00:48:46.771Z,487.64
2023-08-23T00:48:58.738Z,487.63
2023-08-23T00:49:09.757Z,487.59
2023-08-23T00:49:20.755Z,487.58
2023-08-23T00:49:31.756Z,487.58
2023-08-23T00:49:42.777Z,487.57
2023-08-23T00:49:54.775Z,487.55
2023-08-23T00:50:06.738Z,487.51
2023-08-23T00:50:17.744Z,487.50
2023-08-23T00:50:28.737Z,487.47
2023-08-23T00:50:39.731Z,487.45
2023-08-23T00:50:50.737Z,487.43
2023-08-23T00:51:01.756Z,487.42
2023-08-23T00:51:12.761Z,487.38
2023-08-23T00:51:24.765Z,487.38
2023-08-23T00:51:36.732Z,487.34
2023-08-23T00:51:47.737Z,487.37
2023-08-23T00:51:58.749Z,487.33
2023-08-23T00:52:09.769Z,487.30
2023-08-23T00:52:20.767Z,487.27
2023-08-23T00:52:39.530Z,487.27
2023-08-23T00:52:52.740Z,487.25
2023-08-23T00:52:56.726Z,487.22
2023-08-23T00:53:07.741Z,487.19
2023-08-23T00:53:18.751Z,487.20
2023-08-23T00:53:30.759Z,487.19
2023-08-23T00:53:41.754Z,487.20
2023-08-23T00:53:52.751Z,487.19
2023-08-23T00:54:03.763Z,487.20
2023-08-23T00:54:14.776Z,487.19
2023-08-23T00:54:26.750Z,487.17
2023-08-23T00:54:37.767Z,487.18
2023-08-23T00:54:48.742Z,487.17
2023-08-23T00:54:59.747Z,487.17
2023-08-23T00:55:10.735Z,487.18
2023-08-23T00:55:21.749Z,487.18
2023-08-23T00:55:32.743Z,487.21
2023-08-23T00:55:44.731Z,487.22
2023-08-23T00:55:55.752Z,487.20
2023-08-23T00:56:06.744Z,487.22
2023-08-23T00:56:17.770Z,487.21
2023-08-23T00:56:29.752Z,487.23
2023-08-23T00:56:40.752Z,487.25
2023-08-23T00:56:51.741Z,487.27
2023-08-23T00:57:02.744Z,487.28
2023-08-23T00:57:13.758Z,487.30
2023-08-23T00:57:24.753Z,487.32
2023-08-23T00:57:35.777Z,487.31
2023-08-23T00:57:47.972Z,487.33
2023-08-23T00:57:59.764Z,487.35
2023-08-23T00:58:10.770Z,487.38
2023-08-23T00:58:21.763Z,487.42
2023-08-23T00:58:32.760Z,487.45
2023-08-23T00:58:43.770Z,487.44
2023-08-23T00:58:54.778Z,487.47
2023-08-23T00:59:06.740Z,487.48
2023-08-23T00:59:17.760Z,487.47
2023-08-23T00:59:28.768Z,487.51
2023-08-23T00:59:40.753Z,487.52
2023-08-23T00:59:51.740Z,487.55
2023-08-23T01:00:02.738Z,487.57
2023-08-23T01:00:13.738Z,487.61
2023-08-23T01:00:24.748Z,487.62
2023-08-23T01:00:35.756Z,487.63
2023-08-23T01:00:47.768Z,487.64
2023-08-23T01:00:59.754Z,487.66
2023-08-23T01:01:10.749Z,487.68
2023-08-23T01:01:21.782Z,487.70
2023-08-23T01:01:33.870Z,487.73
2023-08-23T01:01:45.761Z,487.75
2023-08-23T01:01:56.810Z,487.79
2023-08-23T01:02:07.749Z,487.81
2023-08-23T01:02:18.752Z,487.81
2023-08-23T01:02:29.788Z,487.83
2023-08-23T01:02:41.828Z,487.85
2023-08-23T01:02:52.789Z,487.86
2023-08-23T01:03:03.785Z,487.91
2023-08-23T01:03:14.802Z,487.91
2023-08-23T01:03:26.769Z,487.91
2023-08-23T01:03:37.768Z,487.95
2023-08-23T01:03:48.761Z,487.97
2023-08-23T01:03:59.761Z,487.98
2023-08-23T01:04:10.803Z,487.97
2023-08-23T01:04:22.763Z,488.00
2023-08-23T01:04:34.750Z,488.01
2023-08-23T01:04:45.756Z,488.04
2023-08-23T01:04:56.763Z,488.06
2023-08-23T01:05:08.755Z,488.08
2023-08-23T01:05:19.763Z,488.06
2023-08-23T01:05:30.834Z,488.08
2023-08-23T01:05:41.758Z,488.11
2023-08-23T01:05:52.793Z,488.11
2023-08-23T01:06:04.773Z,488.16
2023-08-23T01:06:16.843Z,488.16
2023-08-23T01:06:28.754Z,488.17
2023-08-23T01:06:39.777Z,488.19
2023-08-23T01:06:50.779Z,488.18
2023-08-23T01:07:02.766Z,488.20
2023-08-23T01:07:13.771Z,488.22
2023-08-23T01:07:25.759Z,488.20
2023-08-23T01:07:36.773Z,488.22
2023-08-23T01:07:48.897Z,488.19
2023-08-23T01:07:59.739Z,488.19
2023-08-23T01:08:10.778Z,488.16
2023-08-23T01:08:22.740Z,488.17
2023-08-23T01:08:33.753Z,488.14
2023-08-23T01:08:44.755Z,488.11
2023-08-23T01:08:55.774Z,488.13
2023-08-23T01:09:07.759Z,488.11
2023-08-23T01:09:19.604Z,488.11
2023-08-23T01:09:29.752Z,488.11
2023-08-23T01:09:40.774Z,488.13
2023-08-23T01:09:52.747Z,488.14
2023-08-23T01:10:03.780Z,488.13
2023-08-23T01:10:15.767Z,488.14
2023-08-23T01:10:27.733Z,488.12
2023-08-23T01:10:38.723Z,488.16
2023-08-23T01:10:49.742Z,488.14
2023-08-23T01:11:00.750Z,488.17
2023-08-23T01:11:11.745Z,488.21
2023-08-23T01:11:22.766Z,488.24
2023-08-23T01:11:33.836Z,488.26
2023-08-23T01:11:44.747Z,488.29
2023-08-23T01:11:55.883Z,488.29
2023-08-23T01:12:07.812Z,488.32
2023-08-23T01:12:19.782Z,488.38
2023-08-23T01:12:31.750Z,488.40
2023-08-23T01:12:42.754Z,488.42
2023-08-23T01:12:54.742Z,488.44
2023-08-23T01:13:05.741Z,488.47
2023-08-23T01:13:16.772Z,488.46
2023-08-23T01:13:28.764Z,488.45
2023-08-23T01:13:40.746Z,488.46
2023-08-23T01:13:51.746Z,488.44
2023-08-23T01:14:02.774Z,488.42
2023-08-23T01:14:14.765Z,488.43
2023-08-23T01:14:25.770Z,488.43
2023-08-23T01:14:36.768Z,488.42
2023-08-23T01:14:48.745Z,488.41
2023-08-23T01:15:00.751Z,488.38
2023-08-23T01:15:11.762Z,488.41
2023-08-23T01:15:23.755Z,488.37
2023-08-23T01:15:34.764Z,488.38
2023-08-23T01:15:45.769Z,488.38
2023-08-23T01:15:57.806Z,488.39
2023-08-23T01:16:09.778Z,488.40
2023-08-23T01:16:21.817Z,488.38
2023-08-23T01:16:32.768Z,488.38
2023-08-23T01:16:44.788Z,488.37
2023-08-23T01:16:56.754Z,488.36
2023-08-23T01:17:07.769Z,488.40
2023-08-23T01:17:18.764Z,488.43
2023-08-23T01:17:30.765Z,488.41
2023-08-23T01:17:42.945Z,488.41
2023-08-23T01:17:54.793Z,488.39
2023-08-23T01:18:06.798Z,488.41
2023-08-23T01:18:18.800Z,488.44
2023-08-23T01:18:30.776Z,488.45
2023-08-23T01:18:42.771Z,488.42
2023-08-23T01:18:54.739Z,488.45
2023-08-23T01:19:05.744Z,488.44
2023-08-23T01:19:16.742Z,488.41
2023-08-23T01:19:27.742Z,488.40
2023-08-23T01:19:38.743Z,488.40
2023-08-23T01:19:49.757Z,488.42
2023-08-23T01:20:00.772Z,488.40
2023-08-23T01:20:12.743Z,488.42
2023-08-23T01:20:23.777Z,488.43
2023-08-23T01:20:34.769Z,488.42
2023-08-23T01:20:46.734Z,488.43
2023-08-23T01:20:57.755Z,488.46
2023-08-23T01:21:08.748Z,488.47
2023-08-23T01:21:19.745Z,488.48
2023-08-23T01:21:30.764Z,488.47
2023-08-23T01:21:42.757Z,488.47
2023-08-23T01:21:54.749Z,488.50
2023-08-23T01:22:05.737Z,488.49
2023-08-23T01:22:16.753Z,488.50
2023-08-23T01:22:27.756Z,488.50
2023-08-23T01:22:38.759Z,488.53
2023-08-23T01:22:50.752Z,488.52
2023-08-23T01:23:01.751Z,488.53
2023-08-23T01:23:12.758Z,488.53
2023-08-23T01:23:23.764Z,488.55
2023-08-23T01:23:34.771Z,488.57
2023-08-23T01:23:46.745Z,488.57
2023-08-23T01:23:57.748Z,488.59
2023-08-23T01:24:08.744Z,488.61
2023-08-23T01:24:19.743Z,488.62
2023-08-23T01:24:30.774Z,488.66
2023-08-23T01:24:42.747Z,488.68
2023-08-23T01:24:53.757Z,488.68
2023-08-23T01:25:05.760Z,488.72
2023-08-23T01:25:16.775Z,488.74
2023-08-23T01:25:28.776Z,488.77
2023-08-23T01:25:39.722Z,488.80
2023-08-23T01:25:51.747Z,488.82
2023-08-23T01:26:02.752Z,488.84
2023-08-23T01:26:14.744Z,488.83
2023-08-23T01:26:25.772Z,488.84
2023-08-23T01:26:37.781Z,488.87
2023-08-23T01:26:49.757Z,488.89
2023-08-23T01:27:01.740Z,488.92
2023-08-23T01:27:12.742Z,488.94
2023-08-23T01:27:23.762Z,488.97
2023-08-23T01:27:40.325Z,488.96
2023-08-23T01:27:56.459Z,488.99
2023-08-23T01:27:58.718Z,488.99
2023-08-23T01:28:08.750Z,488.98
2023-08-23T01:28:20.733Z,488.98
2023-08-23T01:28:31.757Z,488.97
2023-08-23T01:28:43.750Z,488.98
2023-08-23T01:28:54.756Z,488.98
2023-08-23T01:29:05.764Z,488.99
2023-08-23T01:29:16.762Z,488.99
2023-08-23T01:29:27.747Z,488.98
2023-08-23T01:29:38.756Z,489.02
2023-08-23T01:29:49.785Z,489.05
2023-08-23T01:30:01.760Z,489.04
2023-08-23T01:30:12.770Z,489.05
2023-08-23T01:30:24.744Z,489.06
2023-08-23T01:30:35.740Z,489.06
2023-08-23T01:30:46.760Z,489.06
2023-08-23T01:30:58.774Z,489.04
2023-08-23T01:31:10.754Z,489.03
2023-08-23T01:31:21.784Z,489.05
2023-08-23T01:31:33.778Z,489.04
2023-08-23T01:31:44.772Z,489.08
2023-08-23T01:31:55.790Z,489.07
2023-08-23T01:32:06.758Z,489.08
2023-08-23T01:32:17.758Z,489.10
2023-08-23T01:32:29.748Z,489.09
2023-08-23T01:32:41.827Z,489.12
2023-08-23T01:32:52.815Z,489.13
2023-08-23T01:33:03.775Z,489.15
2023-08-23T01:33:15.779Z,489.15
2023-08-23T01:33:27.786Z,489.20
2023-08-23T01:33:39.753Z,489.21
2023-08-23T01:33:50.744Z,489.23
2023-08-23T01:34:01.743Z,489.23
2023-08-23T01:34:12.747Z,489.25
2023-08-23T01:34:23.748Z,489.25
2023-08-23T01:34:34.758Z,489.24
2023-08-23T01:34:45.768Z,489.24
2023-08-23T01:34:57.745Z,489.25
2023-08-23T01:35:08.747Z,489.28
2023-08-23T01:35:19.746Z,489.26
2023-08-23T01:35:30.750Z,489.29
2023-08-23T01:35:41.753Z,489.31
2023-08-23T01:35:53.746Z,489.30
2023-08-23T01:36:05.803Z,489.34
2023-08-23T01:36:16.730Z,489.34
2023-08-23T01:36:27.765Z,489.35
2023-08-23T01:36:38.768Z,489.36
2023-08-23T01:36:50.750Z,489.35
2023-08-23T01:37:01.773Z,489.35
2023-08-23T01:37:13.757Z,489.34
2023-08-23T01:37:24.742Z,489.35
2023-08-23T01:37:35.765Z,489.34
2023-08-23T01:37:47.106Z,489.35
2023-08-23T01:37:57.770Z,489.34
2023-08-23T01:38:09.748Z,489.33
2023-08-23T01:38:20.769Z,489.35
2023-08-23T01:38:32.738Z,489.36
2023-08-23T01:38:43.737Z,489.37
2023-08-23T01:38:54.738Z,489.38
2023-08-23T01:39:05.795Z,489.39
2023-08-23T01:39:17.764Z,489.40
2023-08-23T01:39:29.783Z,489.43
2023-08-23T01:39:41.741Z,489.46
2023-08-23T01:39:52.763Z,489.46
2023-08-23T01:40:03.766Z,489.49
2023-08-23T01:40:15.786Z,489.53
2023-08-23T01:40:27.748Z,489.53
2023-08-23T01:40:38.768Z,489.54
2023-08-23T01:40:50.747Z,489.56
2023-08-23T01:41:01.742Z,489.58
2023-08-23T01:41:12.726Z,489.59
2023-08-23T01:41:23.731Z,489.59
2023-08-23T01:41:34.744Z,489.62
2023-08-23T01:41:45.770Z,489.62
2023-08-23T01:41:57.760Z,489.62
2023-08-23T01:42:08.753Z,489.64
2023-08-23T01:42:19.759Z,489.64
2023-08-23T01:42:30.752Z,489.62
2023-08-23T01:42:42.743Z,489.62
2023-08-23T01:42:53.765Z,489.57
2023-08-23T01:43:04.765Z,489.60
2023-08-23T01:43:15.796Z,489.59
2023-08-23T01:43:27.764Z,489.57
2023-08-23T01:43:38.770Z,489.59
2023-08-23T01:43:50.736Z,489.57
2023-08-23T01:44:01.732Z,489.58
2023-08-23T01:44:13.744Z,489.55
2023-08-23T01:44:24.745Z,489.55
2023-08-23T01:44:35.741Z,489.53
2023-08-23T01:44:46.743Z,489.53
2023-08-23T01:44:57.743Z,489.53
2023-08-23T01:45:08.748Z,489.51
2023-08-23T01:45:19.759Z,489.51
2023-08-23T01:45:30.753Z,489.51
2023-08-23T01:45:42.786Z,489.51
2023-08-23T01:45:54.803Z,489.53
2023-08-23T01:46:05.805Z,489.51
2023-08-23T01:46:16.787Z,489.53
2023-08-23T01:46:27.743Z,489.54
2023-08-23T01:46:38.732Z,489.55
2023-08-23T01:46:49.746Z,489.52
2023-08-23T01:47:00.753Z,489.54
2023-08-23T01:47:11.755Z,489.53
2023-08-23T01:47:22.870Z,489.53
2023-08-23T01:47:34.762Z,489.53
2023-08-23T01:47:47.086Z,489.53
2023-08-23T01:47:57.761Z,489.51
2023-08-23T01:48:08.805Z,489.51
2023-08-23T01:48:20.789Z,489.54
2023-08-23T01:48:32.766Z,489.52
2023-08-23T01:48:44.759Z,489.51
2023-08-23T01:48:55.754Z,489.48
2023-08-23T01:49:06.753Z,489.46
2023-08-23T01:49:17.759Z,489.47
2023-08-23T01:49:28.763Z,489.45
2023-08-23T01:49:39.765Z,489.45
2023-08-23T01:49:51.764Z,489.44
2023-08-23T01:50:03.748Z,489.44
2023-08-23T01:50:14.772Z,489.43
2023-08-23T01:50:26.741Z,489.45
2023-08-23T01:50:38.744Z,489.45
2023-08-23T01:50:49.742Z,489.44
2023-08-23T01:51:00.739Z,489.47
2023-08-23T01:51:11.758Z,489.48
2023-08-23T01:51:23.746Z,489.51
2023-08-23T01:51:34.755Z,489.53
2023-08-23T01:51:46.742Z,489.55
2023-08-23T01:51:57.757Z,489.57
2023-08-23T01:52:08.752Z,489.63
2023-08-23T01:52:19.807Z,489.68
2023-08-23T01:52:31.766Z,489.72
2023-08-23T01:52:42.762Z,489.75
2023-08-23T01:52:53.761Z,489.78
2023-08-23T01:53:04.757Z,489.84
2023-08-23T01:53:16.748Z,489.88
2023-08-23T01:53:27.771Z,489.90
2023-08-23T01:53:38.738Z,489.95
2023-08-23T01:53:49.754Z,489.97
2023-08-23T01:54:00.761Z,490.02
2023-08-23T01:54:11.775Z,490.02
2023-08-23T01:54:22.770Z,490.06
2023-08-23T01:54:33.795Z,490.07
2023-08-23T01:54:45.769Z,490.14
2023-08-23T01:54:56.769Z,490.15
2023-08-23T01:55:08.759Z,490.18
2023-08-23T01:55:19.782Z,490.19
2023-08-23T01:55:31.755Z,490.21
2023-08-23T01:55:43.745Z,490.22
2023-08-23T01:55:54.731Z,490.24
2023-08-23T01:56:05.737Z,490.30
2023-08-23T01:56:16.737Z,490.30
2023-08-23T01:56:28.746Z,490.32
2023-08-23T01:56:39.745Z,490.35
2023-08-23T01:56:50.777Z,490.36
2023-08-23T01:57:02.751Z,490.38
2023-08-23T01:57:13.748Z,490.38
2023-08-23T01:57:24.776Z,490.40
2023-08-23T01:57:36.750Z,490.45
2023-08-23T01:57:47.979Z,490.43
2023-08-23T01:57:58.734Z,490.47
2023-08-23T01:58:09.730Z,490.49
2023-08-23T01:58:20.715Z,490.51
2023-08-23T01:58:31.814Z,490.52
2023-08-23T01:58:43.779Z,490.56
2023-08-23T01:58:55.776Z,490.55
2023-08-23T01:59:07.755Z,490.58
2023-08-23T01:59:19.614Z,490.61
2023-08-23T01:59:29.766Z,490.60
2023-08-23T01:59:41.755Z,490.63
2023-08-23T01:59:52.772Z,490.65
2023-08-23T02:00:03.776Z,490.67
2023-08-23T02:00:15.755Z,490.65
2023-08-23T02:00:27.753Z,490.64
2023-08-23T02:00:38.756Z,490.64
2023-08-23T02:00:49.755Z,490.65
2023-08-23T02:01:00.810Z,490.65
2023-08-23T02:01:11.765Z,490.66
2023-08-23T02:01:23.794Z,490.65
2023-08-23T02:01:35.807Z,490.61
2023-08-23T02:01:47.808Z,490.62
2023-08-23T02:01:59.778Z,490.59
2023-08-23T02:02:11.756Z,490.59
2023-08-23T02:02:22.784Z,490.58
2023-08-23T02:02:34.790Z,490.56
2023-08-23T02:02:45.848Z,490.54
2023-08-23T02:02:56.881Z,490.54
2023-08-23T02:03:07.833Z,490.55
2023-08-23T02:03:18.829Z,490.52
2023-08-23T02:03:30.849Z,490.52
2023-08-23T02:03:41.847Z,490.53
2023-08-23T02:03:53.758Z,490.48
2023-08-23T02:04:04.770Z,490.52
2023-08-23T02:04:15.768Z,490.50
2023-08-23T02:04:26.773Z,490.53
2023-08-23T02:04:38.754Z,490.50
2023-08-23T02:04:49.763Z,490.49
2023-08-23T02:05:00.791Z,490.47
2023-08-23T02:05:12.761Z,490.48
2023-08-23T02:05:23.772Z,490.47
2023-08-23T02:05:34.770Z,490.46
2023-08-23T02:05:46.764Z,490.47
2023-08-23T02:05:58.733Z,490.47
2023-08-23T02:06:09.749Z,490.46
2023-08-23T02:06:20.757Z,490.48
2023-08-23T02:06:31.742Z,490.46
2023-08-23T02:06:42.760Z,490.47
2023-08-23T02:06:54.775Z,490.49
2023-08-23T02:07:05.787Z,490.47
2023-08-23T02:07:17.767Z,490.47
2023-08-23T02:07:29.761Z,490.48
2023-08-23T02:07:40.765Z,490.46
2023-08-23T02:07:51.757Z,490.48
2023-08-23T02:08:03.754Z,490.47
2023-08-23T02:08:14.761Z,490.48
2023-08-23T02:08:25.741Z,490.47
2023-08-23T02:08:36.768Z,490.48
2023-08-23T02:08:48.747Z,490.45
2023-08-23T02:08:59.746Z,490.45
2023-08-23T02:09:10.773Z,490.47
2023-08-23T02:09:22.760Z,490.49
2023-08-23T02:09:34.767Z,490.47
2023-08-23T02:09:46.765Z,490.47
2023-08-23T02:09:58.742Z,490.49
2023-08-23T02:10:09.729Z,490.50
2023-08-23T02:10:20.737Z,490.50
2023-08-23T02:10:31.749Z,490.50
2023-08-23T02:10:42.758Z,490.49
2023-08-23T02:10:53.748Z,490.47
2023-08-23T02:11:04.753Z,490.46
2023-08-23T02:11:16.748Z,490.45
2023-08-23T02:11:27.762Z,490.43
2023-08-23T02:11:38.763Z,490.42
2023-08-23T02:11:49.765Z,490.43
2023-08-23T02:12:01.748Z,490.39
2023-08-23T02:12:12.774Z,490.37
2023-08-23T02:12:24.746Z,490.39
2023-08-23T02:12:35.717Z,490.35
2023-08-23T02:12:46.728Z,490.34
2023-08-23T02:12:57.730Z,490.30
2023-08-23T02:13:08.748Z,490.30
2023-08-23T02:13:19.743Z,490.28
2023-08-23T02:13:30.736Z,490.28
2023-08-23T02:13:41.741Z,490.28
2023-08-23T02:13:52.752Z,490.24
2023-08-23T02:14:03.763Z,490.23
2023-08-23T02:14:15.738Z,490.21
2023-08-23T02:14:26.755Z,490.20
2023-08-23T02:14:37.756Z,490.17
2023-08-23T02:14:48.760Z,490.15
2023-08-23T02:15:00.742Z,490.14
2023-08-23T02:15:11.738Z,490.13
2023-08-23T02:15:22.724Z,490.10
2023-08-23T02:15:33.757Z,490.10
2023-08-23T02:15:45.803Z,490.07
2023-08-23T02:15:56.804Z,490.09
2023-08-23T02:16:07.802Z,490.03
2023-08-23T02:16:18.820Z,490.03
2023-08-23T02:16:29.718Z,489.99
2023-08-23T02:16:40.730Z,489.97
2023-08-23T02:16:51.748Z,489.94
2023-08-23T02:17:02.755Z,489.88
2023-08-23T02:17:14.731Z,489.86
2023-08-23T02:17:25.757Z,489.83
2023-08-23T02:17:36.783Z,489.82
2023-08-23T02:17:49.007Z,489.78
2023-08-23T02:18:00.768Z,489.77
2023-08-23T02:18:14.802Z,489.73
2023-08-23T02:18:23.790Z,489.71
2023-08-23T02:18:34.818Z,489.70
2023-08-23T02:18:46.808Z,489.69
2023-08-23T02:18:58.799Z,489.67
2023-08-23T02:19:10.761Z,489.67
2023-08-23T02:19:21.762Z,489.63
2023-08-23T02:19:33.748Z,489.64
2023-08-23T02:19:44.750Z,489.64
2023-08-23T02:19:55.746Z,489.60
2023-08-23T02:20:06.768Z,489.58
2023-08-23T02:20:18.749Z,489.56
2023-08-23T02:20:29.759Z,489.56
2023-08-23T02:20:41.747Z,489.53
2023-08-23T02:20:52.752Z,489.53
2023-08-23T02:21:03.752Z,489.51
2023-08-23T02:21:14.750Z,489.51
2023-08-23T02:21:25.775Z,489.50